Time;durP1;ratioP1;P1;durP2;ratioP2;P2;SDS_P1;SDS_P2;PMS_P1;PMS_P2;Temp;Humidity;BMP_temperature;BMP_pressure;BME280_temperature;BME280_humidity;BME280_pressure;Samples;Min_cycle;Max_cycle;Signal;HPM_P1;HPM_P2
2022/04/15 00:01:22;;;;;;;10.80;8.57;;;;;;;;;;5014174;28;20109;-68
2022/04/15 00:03:52;;;;;;;15.65;9.30;;;;;;;;;;5014272;28;20021;-68
2022/04/15 00:06:18;;;;;;;13.02;9.02;;;;;;;;;;5014224;28;20125;-69
2022/04/15 00:08:44;;;;;;;13.50;8.18;;;;;;;;;;5013261;28;20021;-66
2022/04/15 00:11:10;;;;;;;14.20;9.35;;;;;;;;;;5014005;28;20416;-67
2022/04/15 00:13:36;;;;;;;16.95;9.30;;;;;;;;;;5013868;28;20523;-68
2022/04/15 00:16:03;;;;;;;16.10;9.07;;;;;;;;;;5013856;28;20032;-68
2022/04/15 00:18:29;;;;;;;10.65;8.77;;;;;;;;;;5013228;28;20026;-70
2022/04/15 00:20:55;;;;;;;15.13;9.20;;;;;;;;;;5013801;28;20106;-69
2022/04/15 00:23:22;;;;;;;11.23;8.52;;;;;;;;;;5013915;28;20097;-70
2022/04/15 00:25:49;;;;;;;14.18;9.27;;;;;;;;;;5013776;28;20026;-68
2022/04/15 00:28:15;;;;;;;13.25;8.75;;;;;;;;;;5013626;28;20391;-67
2022/04/15 00:30:41;;;;;;;14.02;9.07;;;;;;;;;;5013643;28;20034;-68
2022/04/15 00:33:07;;;;;;;11.75;8.45;;;;;;;;;;5013423;28;20026;-68
2022/04/15 00:35:33;;;;;;;12.02;9.35;;;;;;;;;;5013656;28;20407;-68
2022/04/15 00:37:58;;;;;;;11.68;9.27;;;;;;;;;;5012707;28;20022;-68
2022/04/15 00:40:24;;;;;;;13.85;10.02;;;;;;;;;;5013920;28;20486;-68
2022/04/15 00:42:50;;;;;;;12.57;9.70;;;;;;;;;;5012887;28;20472;-68
2022/04/15 00:45:16;;;;;;;12.32;8.90;;;;;;;;;;5027223;28;20022;-70
2022/04/15 00:47:42;;;;;;;13.10;9.77;;;;;;;;;;5012545;28;20065;-68
2022/04/15 00:50:08;;;;;;;14.38;9.48;;;;;;;;;;5013516;28;20018;-68
2022/04/15 00:52:39;;;;;;;12.98;9.80;;;;;;;;;;5013252;28;20423;-68
2022/04/15 00:55:05;;;;;;;12.93;8.97;;;;;;;;;;4998427;28;20526;-68
2022/04/15 00:57:33;;;;;;;13.38;9.85;;;;;;;;;;5031900;28;20032;-68
2022/04/15 01:00:01;;;;;;;13.00;9.98;;;;;;;;;;5021748;28;20052;-69
2022/04/15 01:02:28;;;;;;;16.60;10.52;;;;;;;;;;5013291;28;20030;-66
2022/04/15 01:04:55;;;;;;;14.68;9.73;;;;;;;;;;5012848;28;20021;-67
2022/04/15 01:07:23;;;;;;;15.60;10.95;;;;;;;;;;5012045;28;20072;-69
2022/04/15 01:09:51;;;;;;;16.38;10.63;;;;;;;;;;4995381;28;20117;-68
2022/04/15 01:12:18;;;;;;;15.10;10.98;;;;;;;;;;5013213;28;20449;-68
2022/04/15 01:14:45;;;;;;;17.65;11.48;;;;;;;;;;5012824;28;20029;-69
2022/04/15 01:17:11;;;;;;;16.65;11.38;;;;;;;;;;5011972;28;20029;-68
2022/04/15 01:19:38;;;;;;;20.58;11.98;;;;;;;;;;5012905;28;20054;-66
2022/04/15 01:22:08;;;;;;;16.27;11.05;;;;;;;;;;5012700;28;20044;-69
2022/04/15 01:24:38;;;;;;;17.70;11.83;;;;;;;;;;5012657;28;20025;-68
2022/04/15 01:27:04;;;;;;;15.98;11.00;;;;;;;;;;5015460;28;20256;-69
2022/04/15 01:29:35;;;;;;;18.13;12.00;;;;;;;;;;5032147;28;20510;-69
2022/04/15 01:32:03;;;;;;;16.30;12.02;;;;;;;;;;5032447;28;20029;-67
2022/04/15 01:34:29;;;;;;;20.27;12.02;;;;;;;;;;5032325;28;20033;-67
2022/04/15 01:36:55;;;;;;;16.85;11.50;;;;;;;;;;5022963;28;20033;-67
2022/04/15 01:39:22;;;;;;;16.27;11.30;;;;;;;;;;5029331;28;20022;-68
2022/04/15 01:41:48;;;;;;;17.13;11.82;;;;;;;;;;5016967;28;20411;-68
2022/04/15 01:44:15;;;;;;;16.88;12.13;;;;;;;;;;5012261;28;20487;-67
2022/04/15 01:46:42;;;;;;;19.58;11.70;;;;;;;;;;5013811;28;20045;-67
2022/04/15 01:49:08;;;;;;;20.23;11.57;;;;;;;;;;5011517;28;20089;-66
2022/04/15 01:51:35;;;;;;;22.42;12.35;;;;;;;;;;5012569;28;20034;-67
2022/04/15 01:54:01;;;;;;;19.73;12.85;;;;;;;;;;5020656;28;20045;-70
2022/04/15 01:56:27;;;;;;;17.38;13.05;;;;;;;;;;5016939;28;20033;-70
2022/04/15 01:58:54;;;;;;;22.55;13.85;;;;;;;;;;5024106;28;20026;-70
2022/04/15 02:01:20;;;;;;;20.23;14.80;;;;;;;;;;5012026;28;20018;-67
2022/04/15 02:03:46;;;;;;;25.35;16.33;;;;;;;;;;5012160;28;20033;-68
2022/04/15 02:06:12;;;;;;;24.38;16.98;;;;;;;;;;5035192;22;20041;-68
2022/04/15 02:08:38;;;;;;;24.30;17.05;;;;;;;;;;5014550;28;20120;-68
2022/04/15 02:11:04;;;;;;;23.48;15.73;;;;;;;;;;5012214;28;20488;-68
2022/04/15 02:13:30;;;;;;;22.13;15.25;;;;;;;;;;5010656;28;20542;-68
2022/04/15 02:15:56;;;;;;;25.77;16.88;;;;;;;;;;5011805;28;20033;-71
2022/04/15 02:18:22;;;;;;;25.92;16.70;;;;;;;;;;5010944;28;20384;-68
2022/04/15 02:20:48;;;;;;;27.20;17.42;;;;;;;;;;5011464;28;20107;-68
2022/04/15 02:23:14;;;;;;;26.83;17.52;;;;;;;;;;4994362;28;20025;-68
2022/04/15 02:25:40;;;;;;;30.10;19.85;;;;;;;;;;5011768;28;20391;-68
2022/04/15 02:28:06;;;;;;;30.70;19.25;;;;;;;;;;5010656;28;20030;-68
2022/04/15 02:30:32;;;;;;;36.25;20.27;;;;;;;;;;5011775;28;20025;-69
2022/04/15 02:32:58;;;;;;;33.95;20.88;;;;;;;;;;5011630;28;20097;-69
2022/04/15 02:35:24;;;;;;;34.70;23.55;;;;;;;;;;4993573;28;20018;-69
2022/04/15 02:37:50;;;;;;;34.88;23.95;;;;;;;;;;5010865;28;20034;-69
2022/04/15 02:40:16;;;;;;;35.47;20.70;;;;;;;;;;5011286;28;20105;-69
2022/04/15 02:42:42;;;;;;;35.17;22.15;;;;;;;;;;5011304;28;20472;-69
2022/04/15 02:45:08;;;;;;;35.35;23.20;;;;;;;;;;5011488;28;20018;-69
2022/04/15 02:47:34;;;;;;;38.90;23.77;;;;;;;;;;5010598;28;20056;-69
2022/04/15 02:50:02;;;;;;;33.42;25.05;;;;;;;;;;5011083;28;20050;-69
2022/04/15 02:52:28;;;;;;;38.97;25.70;;;;;;;;;;5011504;28;20021;-69
2022/04/15 02:54:54;;;;;;;43.58;26.60;;;;;;;;;;5011275;28;20057;-68
2022/04/15 02:57:20;;;;;;;38.65;26.52;;;;;;;;;;5010284;28;20029;-69
2022/04/15 02:59:46;;;;;;;39.40;26.98;;;;;;;;;;5011403;28;20023;-69
2022/04/15 03:02:12;;;;;;;39.72;27.20;;;;;;;;;;5011107;28;20022;-69
2022/04/15 03:04:38;;;;;;;43.28;28.00;;;;;;;;;;5011101;28;20033;-69
2022/04/15 03:07:05;;;;;;;43.67;29.00;;;;;;;;;;4992851;28;20038;-69
2022/04/15 03:09:31;;;;;;;46.25;29.38;;;;;;;;;;5011526;28;20064;-69
2022/04/15 03:11:56;;;;;;;42.72;27.27;;;;;;;;;;4994250;28;20034;-69
2022/04/15 03:14:22;;;;;;;41.97;27.38;;;;;;;;;;5011437;28;20063;-69
2022/04/15 03:16:48;;;;;;;49.40;30.65;;;;;;;;;;4994948;28;20030;-69
2022/04/15 03:19:14;;;;;;;50.10;30.23;;;;;;;;;;5014707;28;20558;-69
2022/04/15 03:21:40;;;;;;;44.78;29.33;;;;;;;;;;5015397;28;20073;-69
2022/04/15 03:24:07;;;;;;;50.15;31.52;;;;;;;;;;5014953;28;20025;-69
2022/04/15 03:26:33;;;;;;;49.65;30.98;;;;;;;;;;5014927;28;20496;-69
2022/04/15 03:28:59;;;;;;;51.70;33.03;;;;;;;;;;5014142;28;20040;-69
2022/04/15 03:31:24;;;;;;;52.95;34.33;;;;;;;;;;5015042;28;20021;-69
2022/04/15 03:33:50;;;;;;;51.13;32.35;;;;;;;;;;5015110;28;20034;-69
2022/04/15 03:36:18;;;;;;;48.22;31.13;;;;;;;;;;5014613;28;20080;-69
2022/04/15 03:38:44;;;;;;;48.97;32.20;;;;;;;;;;5013715;28;20026;-69
2022/04/15 03:41:10;;;;;;;46.63;31.00;;;;;;;;;;5014813;28;20026;-69
2022/04/15 03:43:36;;;;;;;45.28;29.05;;;;;;;;;;5014758;28;20164;-69
2022/04/15 03:46:02;;;;;;;49.40;30.55;;;;;;;;;;5014256;28;20034;-69
2022/04/15 03:48:28;;;;;;;47.88;31.52;;;;;;;;;;5013586;28;20018;-69
2022/04/15 03:50:54;;;;;;;43.20;28.25;;;;;;;;;;5014449;28;20495;-69
2022/04/15 03:53:21;;;;;;;43.80;30.92;;;;;;;;;;5014390;28;20381;-68
2022/04/15 03:55:47;;;;;;;45.55;31.52;;;;;;;;;;5014818;28;20041;-69
2022/04/15 03:58:15;;;;;;;44.80;29.92;;;;;;;;;;5013564;28;20472;-68
2022/04/15 04:00:42;;;;;;;46.28;30.27;;;;;;;;;;4997326;28;20018;-68
2022/04/15 04:03:08;;;;;;;45.45;30.88;;;;;;;;;;5014691;28;20040;-68
2022/04/15 04:05:34;;;;;;;45.95;29.73;;;;;;;;;;5014337;28;20193;-68
2022/04/15 04:08:00;;;;;;;47.92;30.73;;;;;;;;;;5013188;28;20048;-68
2022/04/15 04:10:25;;;;;;;48.47;32.10;;;;;;;;;;5014181;28;20061;-70
2022/04/15 04:12:51;;;;;;;47.22;30.92;;;;;;;;;;4996393;28;20030;-69
2022/04/15 04:15:18;;;;;;;48.50;33.05;;;;;;;;;;4996297;28;20108;-69
2022/04/15 04:17:44;;;;;;;44.90;30.15;;;;;;;;;;5013131;28;20049;-69
2022/04/15 04:20:12;;;;;;;43.67;31.83;;;;;;;;;;5013782;28;20048;-69
2022/04/15 04:22:38;;;;;;;45.05;31.95;;;;;;;;;;5013891;28;20022;-69
2022/04/15 04:25:08;;;;;;;43.25;30.15;;;;;;;;;;5013909;28;20022;-69
2022/04/15 04:27:34;;;;;;;47.20;31.90;;;;;;;;;;5012715;28;20057;-69
2022/04/15 04:30:00;;;;;;;46.83;33.63;;;;;;;;;;5012486;28;20026;-69
2022/04/15 04:32:26;;;;;;;43.53;29.55;;;;;;;;;;5013587;28;20080;-69
2022/04/15 04:34:52;;;;;;;46.00;31.95;;;;;;;;;;5013588;28;20025;-68
2022/04/15 04:37:18;;;;;;;45.28;31.45;;;;;;;;;;5012667;28;20603;-68
2022/04/15 04:39:44;;;;;;;45.60;33.15;;;;;;;;;;5013601;28;20029;-68
2022/04/15 04:42:10;;;;;;;46.80;32.88;;;;;;;;;;5013247;28;20022;-69
2022/04/15 04:44:37;;;;;;;46.80;33.33;;;;;;;;;;5013176;28;20029;-69
2022/04/15 04:47:03;;;;;;;44.50;32.10;;;;;;;;;;5012929;28;20030;-68
2022/04/15 04:49:29;;;;;;;44.95;32.38;;;;;;;;;;4995550;28;20057;-69
2022/04/15 04:51:55;;;;;;;48.17;32.88;;;;;;;;;;5013263;28;20474;-70
2022/04/15 04:54:22;;;;;;;43.88;32.28;;;;;;;;;;5012955;28;20472;-70
2022/04/15 04:56:48;;;;;;;48.35;33.15;;;;;;;;;;5012879;28;20036;-69
2022/04/15 04:59:13;;;;;;;42.80;32.55;;;;;;;;;;5012219;28;20112;-69
2022/04/15 05:01:39;;;;;;;46.30;32.95;;;;;;;;;;5013155;28;20022;-69
2022/04/15 05:04:05;;;;;;;47.60;33.13;;;;;;;;;;4995243;28;20026;-69
2022/04/15 05:06:31;;;;;;;46.28;33.83;;;;;;;;;;5012859;28;20053;-70
2022/04/15 05:08:57;;;;;;;44.05;33.17;;;;;;;;;;5012236;28;20037;-69
2022/04/15 05:11:23;;;;;;;46.80;32.65;;;;;;;;;;5013469;28;20069;-69
2022/04/15 05:13:50;;;;;;;49.88;33.22;;;;;;;;;;5012715;28;20030;-69
2022/04/15 05:16:16;;;;;;;44.40;32.47;;;;;;;;;;5012517;28;20033;-69
2022/04/15 05:18:42;;;;;;;42.38;32.38;;;;;;;;;;5012013;28;20049;-69
2022/04/15 05:21:08;;;;;;;42.92;31.52;;;;;;;;;;5013072;28;20018;-69
2022/04/15 05:23:34;;;;;;;40.95;30.13;;;;;;;;;;5012915;28;20426;-69
2022/04/15 05:26:00;;;;;;;40.63;30.08;;;;;;;;;;5012514;28;20057;-69
2022/04/15 05:28:26;;;;;;;40.08;30.25;;;;;;;;;;5011687;28;20022;-69
2022/04/15 05:30:52;;;;;;;38.78;29.02;;;;;;;;;;5012565;28;20049;-70
2022/04/15 05:33:18;;;;;;;39.83;29.67;;;;;;;;;;5012752;28;20103;-70
2022/04/15 05:35:44;;;;;;;37.83;28.58;;;;;;;;;;5012653;28;20032;-70
2022/04/15 05:38:10;;;;;;;37.45;28.50;;;;;;;;;;5012297;28;20063;-69
2022/04/15 05:40:36;;;;;;;39.45;28.42;;;;;;;;;;5012117;28;20083;-69
2022/04/15 05:43:02;;;;;;;38.83;26.27;;;;;;;;;;5012122;28;20014;-70
2022/04/15 05:45:28;;;;;;;34.53;25.20;;;;;;;;;;5012943;28;20373;-69
2022/04/15 05:47:57;;;;;;;33.42;24.77;;;;;;;;;;5011851;28;20032;-70
2022/04/15 05:50:23;;;;;;;34.47;24.35;;;;;;;;;;5012323;28;20097;-70
2022/04/15 05:52:49;;;;;;;31.38;22.67;;;;;;;;;;4994782;28;20105;-69
2022/04/15 05:55:15;;;;;;;25.48;18.83;;;;;;;;;;5012521;28;20071;-69
2022/04/15 05:57:41;;;;;;;26.08;18.85;;;;;;;;;;5011533;28;20029;-69
2022/04/15 06:00:08;;;;;;;20.52;14.52;;;;;;;;;;5011877;28;20041;-69
2022/04/15 06:02:34;;;;;;;17.88;15.02;;;;;;;;;;5012296;28;20026;-69
2022/04/15 06:05:00;;;;;;;22.02;15.30;;;;;;;;;;5011985;28;20487;-69
2022/04/15 06:07:26;;;;;;;17.80;14.05;;;;;;;;;;5011180;28;20038;-69
2022/04/15 06:09:52;;;;;;;18.20;14.10;;;;;;;;;;5011780;28;20033;-69
2022/04/15 06:12:21;;;;;;;18.75;13.63;;;;;;;;;;5011499;28;20477;-70
2022/04/15 06:14:48;;;;;;;17.73;12.93;;;;;;;;;;4994520;28;20508;-70
2022/04/15 06:17:16;;;;;;;16.63;13.00;;;;;;;;;;5011709;28;20018;-70
2022/04/15 06:19:42;;;;;;;15.23;11.85;;;;;;;;;;5012060;28;20025;-69
2022/04/15 06:22:08;;;;;;;17.88;13.13;;;;;;;;;;5011662;28;20021;-70
2022/04/15 06:24:34;;;;;;;19.73;13.52;;;;;;;;;;5012081;28;20018;-69
2022/04/15 06:27:00;;;;;;;18.02;14.15;;;;;;;;;;4993414;28;20017;-69
2022/04/15 06:29:26;;;;;;;16.10;12.88;;;;;;;;;;5011266;28;20047;-70
2022/04/15 06:31:52;;;;;;;18.48;12.90;;;;;;;;;;5011730;28;20052;-69
2022/04/15 06:34:18;;;;;;;16.63;12.55;;;;;;;;;;5011897;28;20492;-70
2022/04/15 06:36:44;;;;;;;16.13;12.00;;;;;;;;;;5011453;28;20037;-70
2022/04/15 06:39:10;;;;;;;17.60;12.80;;;;;;;;;;4992926;28;20140;-69
2022/04/15 06:41:36;;;;;;;16.75;12.85;;;;;;;;;;5011706;28;20392;-69
2022/04/15 06:44:02;;;;;;;17.10;12.38;;;;;;;;;;4993581;28;20022;-69
2022/04/15 06:46:28;;;;;;;15.98;12.75;;;;;;;;;;5011303;28;20033;-69
2022/04/15 06:48:54;;;;;;;19.83;12.93;;;;;;;;;;5010923;28;20030;-69
2022/04/15 06:51:21;;;;;;;14.55;11.95;;;;;;;;;;4994760;28;20496;-69
2022/04/15 06:53:47;;;;;;;14.02;10.93;;;;;;;;;;5012079;28;20095;-69
2022/04/15 06:56:14;;;;;;;14.00;9.82;;;;;;;;;;5011663;28;20472;-69
2022/04/15 06:58:41;;;;;;;12.98;10.65;;;;;;;;;;5010578;28;20026;-69
2022/04/15 07:01:07;;;;;;;13.50;11.18;;;;;;;;;;5011207;28;20020;-70
2022/04/15 07:03:33;;;;;;;13.90;10.70;;;;;;;;;;5011401;28;20387;-69
2022/04/15 07:05:59;;;;;;;14.20;11.00;;;;;;;;;;5011494;28;20395;-70
2022/04/15 07:08:25;;;;;;;16.05;11.35;;;;;;;;;;5010117;28;20500;-70
2022/04/15 07:10:51;;;;;;;14.68;11.90;;;;;;;;;;5011127;28;20544;-70
2022/04/15 07:13:17;;;;;;;18.67;11.65;;;;;;;;;;5011137;28;20014;-70
2022/04/15 07:15:43;;;;;;;16.17;10.50;;;;;;;;;;5011171;28;20033;-70
2022/04/15 07:18:08;;;;;;;14.52;10.75;;;;;;;;;;5010125;28;20058;-68
2022/04/15 07:20:34;;;;;;;16.55;10.85;;;;;;;;;;5012814;28;20141;-69
2022/04/15 07:23:01;;;;;;;15.63;10.30;;;;;;;;;;5010848;28;20026;-68
2022/04/15 07:25:27;;;;;;;13.88;10.88;;;;;;;;;;5011422;28;20032;-69
2022/04/15 07:27:56;;;;;;;14.65;9.73;;;;;;;;;;4992533;28;20030;-69
2022/04/15 07:30:23;;;;;;;12.13;8.48;;;;;;;;;;5011160;28;20120;-68
2022/04/15 07:32:49;;;;;;;11.43;7.82;;;;;;;;;;5010923;28;20022;-70
2022/04/15 07:35:15;;;;;;;11.27;8.60;;;;;;;;;;5011503;28;20387;-68
2022/04/15 07:37:41;;;;;;;10.98;8.40;;;;;;;;;;5006456;28;20021;-69
2022/04/15 07:40:07;;;;;;;12.38;7.65;;;;;;;;;;5015328;28;20309;-69
2022/04/15 07:42:33;;;;;;;10.10;7.63;;;;;;;;;;4997086;28;20109;-69
2022/04/15 07:44:59;;;;;;;8.88;7.28;;;;;;;;;;4993252;28;20068;-69
2022/04/15 07:47:26;;;;;;;11.60;7.13;;;;;;;;;;5010008;28;20498;-70
2022/04/15 07:49:52;;;;;;;11.57;7.25;;;;;;;;;;5010963;28;20029;-69
2022/04/15 07:52:18;;;;;;;10.68;7.50;;;;;;;;;;5010917;28;20026;-70
2022/04/15 07:54:44;;;;;;;10.32;7.45;;;;;;;;;;5010654;28;20029;-70
2022/04/15 07:57:10;;;;;;;11.85;7.18;;;;;;;;;;5009837;28;20022;-69
2022/04/15 07:59:36;;;;;;;7.95;6.80;;;;;;;;;;5010809;28;20506;-69
2022/04/15 08:02:06;;;;;;;9.65;7.32;;;;;;;;;;5011183;28;20535;-69
2022/04/15 08:04:34;;;;;;;15.77;7.50;;;;;;;;;;5013664;28;20396;-69
2022/04/15 08:07:00;;;;;;;9.40;7.20;;;;;;;;;;5019130;23;20318;-72
2022/04/15 08:09:26;;;;;;;10.07;6.35;;;;;;;;;;5015788;28;20037;-71
2022/04/15 08:11:54;;;;;;;8.80;7.47;;;;;;;;;;5016570;28;20479;-71
2022/04/15 08:14:20;;;;;;;10.68;7.38;;;;;;;;;;5015364;28;20033;-71
2022/04/15 08:16:46;;;;;;;10.43;7.00;;;;;;;;;;5016590;28;20033;-71
2022/04/15 08:19:12;;;;;;;11.23;8.02;;;;;;;;;;5014740;28;20018;-71
2022/04/15 08:21:38;;;;;;;10.27;7.05;;;;;;;;;;4998174;28;20030;-71
2022/04/15 08:24:04;;;;;;;9.75;7.25;;;;;;;;;;4998975;28;20109;-71
2022/04/15 08:26:30;;;;;;;10.35;6.97;;;;;;;;;;4998582;28;20037;-71
2022/04/15 08:28:56;;;;;;;8.88;6.50;;;;;;;;;;4997508;28;20037;-71
2022/04/15 08:31:25;;;;;;;10.55;7.72;;;;;;;;;;4998311;28;20233;-71
2022/04/15 08:33:51;;;;;;;7.90;6.63;;;;;;;;;;4998330;28;20484;-71
2022/04/15 08:36:17;;;;;;;9.15;6.40;;;;;;;;;;5016741;28;20033;-70
2022/04/15 08:38:43;;;;;;;9.85;6.47;;;;;;;;;;5015122;28;20041;-71
2022/04/15 08:41:11;;;;;;;8.60;6.50;;;;;;;;;;5015679;28;20054;-70
2022/04/15 08:43:37;;;;;;;8.75;6.68;;;;;;;;;;5015722;28;20430;-72
2022/04/15 08:46:05;;;;;;;13.00;7.85;;;;;;;;;;4997977;28;20037;-72
2022/04/15 08:48:32;;;;;;;8.85;6.13;;;;;;;;;;5015474;28;20036;-72
2022/04/15 08:50:59;;;;;;;10.00;6.25;;;;;;;;;;5016670;28;20022;-73
2022/04/15 08:53:25;;;;;;;10.07;7.07;;;;;;;;;;4998632;28;20054;-73
2022/04/15 08:55:51;;;;;;;8.38;5.90;;;;;;;;;;5015750;28;20032;-72
2022/04/15 08:58:17;;;;;;;6.95;4.93;;;;;;;;;;5013946;28;20026;-71
2022/04/15 09:00:43;;;;;;;6.50;5.10;;;;;;;;;;5015161;28;20104;-72
2022/04/15 09:03:09;;;;;;;13.13;6.07;;;;;;;;;;5015047;28;20022;-71
2022/04/15 09:05:35;;;;;;;6.72;4.75;;;;;;;;;;5015477;28;20030;-72
2022/04/15 09:08:08;;;;;;;8.45;4.30;;;;;;;;;;4996901;28;20432;-72
2022/04/15 09:10:35;;;;;;;9.50;4.90;;;;;;;;;;4998137;28;20053;-72
2022/04/15 09:13:04;;;;;;;7.47;4.80;;;;;;;;;;4998088;28;20064;-71
2022/04/15 09:15:30;;;;;;;6.45;4.25;;;;;;;;;;5014557;28;20029;-72
2022/04/15 09:17:59;;;;;;;5.18;4.30;;;;;;;;;;5014482;28;20360;-73
2022/04/15 09:20:26;;;;;;;5.97;4.85;;;;;;;;;;5015302;28;20030;-71
2022/04/15 09:23:08;;;;;;;7.13;4.78;;;;;;;;;;4998119;28;20458;-74
2022/04/15 09:25:35;;;;;;;5.25;4.40;;;;;;;;;;5016261;28;20036;-72
2022/04/15 09:28:01;;;;;;;6.05;3.95;;;;;;;;;;5014715;28;20064;-71
2022/04/15 09:30:36;;;;;;;5.57;4.10;;;;;;;;;;5015971;28;20022;-72
2022/04/15 09:33:03;;;;;;;6.90;4.35;;;;;;;;;;4998228;28;20026;-70
2022/04/15 09:35:33;;;;;;;5.60;4.35;;;;;;;;;;5016513;28;20041;-72
2022/04/15 09:38:03;;;;;;;4.80;3.95;;;;;;;;;;5017440;28;20025;-72
2022/04/15 09:40:31;;;;;;;6.70;4.60;;;;;;;;;;5017840;28;20447;-71
2022/04/15 09:42:58;;;;;;;5.63;3.97;;;;;;;;;;5017327;28;20068;-72
2022/04/15 09:45:27;;;;;;;5.35;3.72;;;;;;;;;;5017254;28;20024;-73
2022/04/15 09:47:57;;;;;;;5.30;3.63;;;;;;;;;;5006269;28;20022;-71
2022/04/15 09:50:23;;;;;;;3.72;3.10;;;;;;;;;;5015408;28;20029;-72
2022/04/15 09:52:50;;;;;;;2.72;2.47;;;;;;;;;;5015256;28;20021;-72
2022/04/15 09:55:19;;;;;;;3.72;2.85;;;;;;;;;;5015202;28;20022;-72
2022/04/15 09:57:46;;;;;;;3.70;2.67;;;;;;;;;;5014842;28;20030;-72
2022/04/15 10:00:13;;;;;;;3.20;2.53;;;;;;;;;;4997885;28;20018;-71
2022/04/15 10:02:53;;;;;;;2.88;2.58;;;;;;;;;;5015281;28;20022;-72
2022/04/15 10:05:22;;;;;;;2.70;2.17;;;;;;;;;;4998173;28;20018;-72
2022/04/15 10:07:49;;;;;;;2.67;2.47;;;;;;;;;;4996599;28;20479;-71
2022/04/15 10:10:15;;;;;;;2.67;2.08;;;;;;;;;;4996939;28;20116;-72
2022/04/15 10:12:45;;;;;;;5.25;2.45;;;;;;;;;;5015415;28;20399;-72
2022/04/15 10:15:16;;;;;;;3.40;2.72;;;;;;;;;;5000271;28;20026;-73
2022/04/15 10:17:43;;;;;;;2.85;2.03;;;;;;;;;;4996725;28;20033;-71
2022/04/15 10:20:09;;;;;;;2.35;1.92;;;;;;;;;;5014881;28;20106;-72
2022/04/15 10:22:38;;;;;;;2.97;2.05;;;;;;;;;;5020623;28;20028;-71
2022/04/15 10:25:05;;;;;;;3.70;2.80;;;;;;;;;;4979890;28;20022;-72
2022/04/15 10:27:31;;;;;;;2.67;2.30;;;;;;;;;;5009041;28;20392;-73
2022/04/15 10:30:01;;;;;;;5.10;3.25;;;;;;;;;;5010203;28;20076;-71
2022/04/15 10:32:27;;;;;;;3.30;3.00;;;;;;;;;;5009941;28;20477;-70
2022/04/15 10:34:53;;;;;;;12.30;6.40;;;;;;;;;;5009918;28;20033;-70
2022/04/15 10:37:39;;;;;;;10.32;5.50;;;;;;;;;;5008924;28;20032;-73
2022/04/15 10:40:21;;;;;;;33.50;15.95;;;;;;;;;;5010954;28;20034;-70
2022/04/15 10:42:47;;;;;;;7.55;3.80;;;;;;;;;;5011089;28;20448;-72
2022/04/15 10:45:39;;;;;;;3.40;2.80;;;;;;;;;;5011501;28;20028;-74
2022/04/15 10:48:05;;;;;;;8.85;4.55;;;;;;;;;;4999341;28;20037;-70
2022/04/15 10:50:33;;;;;;;6.32;3.80;;;;;;;;;;5009708;28;20030;-70
2022/04/15 10:53:18;;;;;;;17.02;9.38;;;;;;;;;;5009461;28;20088;-72
2022/04/15 10:55:52;;;;;;;7.93;5.10;;;;;;;;;;5010201;28;20034;-71
2022/04/15 10:58:19;;;;;;;22.20;12.45;;;;;;;;;;4991724;28;20034;-72
2022/04/15 11:03:42;;;;;;;84.10;39.60;;;;;;;;;;4997173;28;20037;-73
2022/04/15 11:06:09;;;;;;;28.25;13.82;;;;;;;;;;5011505;28;20052;-72
2022/04/15 11:08:46;;;;;;;14.18;8.68;;;;;;;;;;4993899;28;20084;-71
2022/04/15 11:11:11;;;;;;;3.42;2.65;;;;;;;;;;5011574;28;20561;-71
2022/04/15 11:13:40;;;;;;;9.18;4.97;;;;;;;;;;5011292;28;20038;-72
2022/04/15 11:16:06;;;;;;;4.50;3.22;;;;;;;;;;5011113;28;20037;-75
2022/04/15 11:18:57;;;;;;;6.90;3.47;;;;;;;;;;5011243;28;20439;-69
2022/04/15 11:21:23;;;;;;;3.33;2.58;;;;;;;;;;5011087;28;20017;-70
2022/04/15 11:23:52;;;;;;;4.03;3.08;;;;;;;;;;5011820;28;20022;-71
2022/04/15 11:26:19;;;;;;;5.68;3.55;;;;;;;;;;5012528;28;20086;-71
2022/04/15 11:29:07;;;;;;;6.30;3.88;;;;;;;;;;5014508;28;20033;-73
2022/04/15 11:31:38;;;;;;;10.15;5.13;;;;;;;;;;5012777;28;20057;-74
2022/04/15 11:34:04;;;;;;;7.45;4.63;;;;;;;;;;5011897;28;20145;-72
2022/04/15 11:36:35;;;;;;;3.15;2.60;;;;;;;;;;4994047;28;20069;-73
2022/04/15 11:39:02;;;;;;;44.03;26.52;;;;;;;;;;5013991;28;20022;-72
2022/04/15 11:41:28;;;;;;;195.25;119.30;;;;;;;;;;4997378;28;20034;-71
2022/04/15 11:44:10;;;;;;;66.50;36.60;;;;;;;;;;5015035;28;20026;-71
2022/04/15 11:46:52;;;;;;;;;;;;;;;;;;;;;
2022/04/15 11:49:41;;;;;;;118.38;56.45;;;;;;;;;;5013856;28;20416;-71
2022/04/15 11:52:07;;;;;;;48.10;24.25;;;;;;;;;;5015170;28;20435;-72
2022/04/15 11:54:34;;;;;;;13.93;8.00;;;;;;;;;;5015311;28;20032;-70
2022/04/15 11:57:03;;;;;;;25.15;13.23;;;;;;;;;;5014353;28;20492;-71
2022/04/15 11:59:29;;;;;;;29.83;15.25;;;;;;;;;;5001949;28;20022;-72
2022/04/15 12:01:57;;;;;;;16.02;9.02;;;;;;;;;;5014742;28;20025;-72
2022/04/15 12:04:23;;;;;;;10.77;6.25;;;;;;;;;;5013206;28;20125;-71
2022/04/15 12:06:49;;;;;;;13.20;6.80;;;;;;;;;;5017660;28;20467;-71
2022/04/15 12:09:16;;;;;;;7.40;4.47;;;;;;;;;;5003957;28;20053;-72
2022/04/15 12:11:42;;;;;;;2.78;2.15;;;;;;;;;;5014512;28;20065;-72
2022/04/15 12:14:08;;;;;;;7.68;4.78;;;;;;;;;;5014764;28;20484;-70
2022/04/15 12:16:35;;;;;;;4.03;2.20;;;;;;;;;;5014016;28;20026;-72
2022/04/15 12:19:02;;;;;;;6.45;4.50;;;;;;;;;;5013282;28;20013;-69
2022/04/15 12:21:29;;;;;;;4.57;2.95;;;;;;;;;;5011185;28;20018;-72
2022/04/15 12:24:04;;;;;;;9.90;5.22;;;;;;;;;;4999690;28;20381;-70
2022/04/15 12:26:46;;;;;;;6.78;4.65;;;;;;;;;;5017905;28;20037;-73
2022/04/15 12:32:15;;;;;;;6.90;4.90;;;;;;;;;;5011947;28;20080;-71
2022/04/15 12:34:42;;;;;;;3.60;2.33;;;;;;;;;;4993143;28;20490;-71
2022/04/15 12:37:28;;;;;;;3.63;2.72;;;;;;;;;;5008076;28;20026;-70
2022/04/15 12:39:54;;;;;;;3.03;2.53;;;;;;;;;;5009529;28;20026;-71
2022/04/15 12:42:27;;;;;;;11.23;6.65;;;;;;;;;;5010068;28;20072;-70
2022/04/15 12:44:53;;;;;;;6.40;3.85;;;;;;;;;;5010042;28;20018;-70
2022/04/15 12:47:19;;;;;;;5.97;4.30;;;;;;;;;;4992455;28;20488;-70
2022/04/15 12:49:45;;;;;;;7.50;4.07;;;;;;;;;;5010930;28;20109;-71
2022/04/15 12:52:12;;;;;;;9.75;5.38;;;;;;;;;;5013392;28;20058;-71
2022/04/15 12:54:57;;;;;;;6.50;4.35;;;;;;;;;;4995026;28;20021;-71
2022/04/15 12:57:27;;;;;;;4.47;3.30;;;;;;;;;;4980528;28;21730;-70
2022/04/15 12:59:53;;;;;;;5.32;3.53;;;;;;;;;;5013285;28;20030;-72
2022/04/15 13:02:19;;;;;;;5.13;3.33;;;;;;;;;;5012790;28;20033;-72
2022/04/15 13:04:48;;;;;;;7.43;3.90;;;;;;;;;;5012498;28;20396;-71
2022/04/15 13:07:14;;;;;;;10.95;6.38;;;;;;;;;;5012249;28;20038;-72
2022/04/15 13:09:40;;;;;;;4.60;3.67;;;;;;;;;;5013179;28;20117;-72
2022/04/15 13:12:06;;;;;;;5.65;4.22;;;;;;;;;;5013041;28;20117;-72
2022/04/15 13:14:32;;;;;;;5.70;4.65;;;;;;;;;;5012874;28;20037;-71
2022/04/15 13:16:58;;;;;;;7.80;4.38;;;;;;;;;;5012280;28;20622;-70
2022/04/15 13:19:24;;;;;;;4.07;3.33;;;;;;;;;;5012170;28;20104;-70
2022/04/15 13:21:53;;;;;;;7.13;4.93;;;;;;;;;;5010402;28;20026;-70
2022/04/15 13:24:19;;;;;;;7.90;4.93;;;;;;;;;;5011045;28;20026;-72
2022/04/15 13:26:45;;;;;;;3.95;3.55;;;;;;;;;;5009477;28;20029;-72
2022/04/15 13:29:11;;;;;;;5.60;4.30;;;;;;;;;;5009942;28;20679;-72
2022/04/15 13:31:37;;;;;;;4.70;3.50;;;;;;;;;;5010553;28;20076;-71
2022/04/15 13:34:03;;;;;;;3.83;3.17;;;;;;;;;;4993175;28;20029;-73
2022/04/15 13:36:29;;;;;;;11.13;6.82;;;;;;;;;;5011706;28;20087;-71
2022/04/15 13:38:55;;;;;;;6.88;4.88;;;;;;;;;;4994034;28;20112;-71
2022/04/15 13:41:22;;;;;;;7.13;5.32;;;;;;;;;;4992074;28;20026;-72
2022/04/15 13:43:48;;;;;;;8.00;5.10;;;;;;;;;;5010125;28;20041;-72
2022/04/15 13:46:14;;;;;;;13.93;8.00;;;;;;;;;;5010466;28;20071;-72
2022/04/15 13:48:41;;;;;;;13.18;7.43;;;;;;;;;;5009638;28;20112;-71
2022/04/15 13:51:07;;;;;;;8.75;6.40;;;;;;;;;;4994681;28;20034;-73
2022/04/15 13:56:34;;;;;;;5.80;4.50;;;;;;;;;;5006465;28;20205;-71
2022/04/15 13:59:02;;;;;;;11.95;7.97;;;;;;;;;;5011515;28;20014;-72
2022/04/15 14:01:29;;;;;;;8.73;5.07;;;;;;;;;;5012086;28;20013;-71
2022/04/15 14:03:56;;;;;;;12.82;7.85;;;;;;;;;;5012345;28;20026;-73
2022/04/15 14:06:24;;;;;;;6.22;4.50;;;;;;;;;;5011529;28;20084;-73
2022/04/15 14:08:51;;;;;;;6.22;4.90;;;;;;;;;;5009741;23;20077;-71
2022/04/15 14:11:17;;;;;;;5.60;4.13;;;;;;;;;;5011428;28;20034;-72
2022/04/15 14:13:43;;;;;;;10.55;6.20;;;;;;;;;;5011165;28;20073;-71
2022/04/15 14:16:09;;;;;;;6.65;4.82;;;;;;;;;;5007925;28;20040;-71
2022/04/15 14:18:35;;;;;;;7.57;5.60;;;;;;;;;;4996648;28;20061;-70
2022/04/15 14:21:01;;;;;;;8.82;6.50;;;;;;;;;;4991511;28;20453;-69
2022/04/15 14:23:27;;;;;;;8.75;6.22;;;;;;;;;;4991380;28;20029;-70
2022/04/15 14:25:53;;;;;;;10.73;7.13;;;;;;;;;;4991468;28;20022;-68
2022/04/15 14:28:19;;;;;;;9.98;6.55;;;;;;;;;;4992323;28;20025;-71
2022/04/15 14:30:45;;;;;;;11.20;7.60;;;;;;;;;;4991798;28;20480;-71
2022/04/15 14:33:12;;;;;;;13.48;8.57;;;;;;;;;;4991955;28;20022;-69
2022/04/15 14:35:41;;;;;;;12.15;8.85;;;;;;;;;;4991453;28;20018;-70
2022/04/15 14:38:08;;;;;;;15.18;10.77;;;;;;;;;;4990562;28;20058;-71